Time;durP1;ratioP1;P1;durP2;ratioP2;P2;SDS_P1;SDS_P2;PMS_P1;PMS_P2;Temp;Humidity;BMP_temperature;BMP_pressure;BME280_temperature;BME280_humidity;BME280_pressure;Samples;Min_cycle;Max_cycle;Signal;HPM_P1;HPM_P2
2022/07/01 00:02:01;;;;;;;;;21.00;20.00;;;;;28.56;50.41;98358.66;6263264;27;97569;-70
2022/07/01 00:05:05;;;;;;;;;19.00;18.00;;;;;28.48;50.96;98356.84;6243989;27;97906;-71
2022/07/01 00:08:20;;;;;;;;;21.00;18.00;;;;;28.43;51.01;98357.91;6263308;27;96742;-70
2022/07/01 00:11:23;;;;;;;;;21.50;18.00;;;;;28.38;50.66;98363.69;6245262;27;98345;-69
2022/07/01 00:14:27;;;;;;;;;22.00;19.00;;;;;28.34;50.98;98348.94;6263646;27;96885;-69
2022/07/01 00:17:32;;;;;;;;;19.20;18.20;;;;;28.27;51.44;98352.28;6238394;27;98566;-70
2022/07/01 00:20:35;;;;;;;;;21.00;18.60;;;;;28.23;51.12;98356.94;6245810;27;97116;-71
2022/07/01 00:23:39;;;;;;;;;20.40;18.80;;;;;28.23;51.19;98356.13;6263701;27;96671;-71
2022/07/01 00:26:42;;;;;;;;;18.20;17.00;;;;;28.23;51.49;98365.25;6263983;27;97061;-71
2022/07/01 00:29:45;;;;;;;;;22.00;19.40;;;;;28.22;51.05;98358.06;6244161;27;97484;-70
2022/07/01 00:32:52;;;;;;;;;20.00;19.00;;;;;28.20;51.02;98360.38;6245609;27;97413;-70
2022/07/01 00:35:56;;;;;;;;;19.60;18.40;;;;;27.97;51.67;98328.78;6244778;27;97601;-69
2022/07/01 00:39:00;;;;;;;;;19.60;18.00;;;;;28.08;51.35;98349.31;6242906;27;98470;-70
2022/07/01 00:42:05;;;;;;;;;20.80;20.00;;;;;28.05;51.70;98352.78;6238110;27;96428;-71
2022/07/01 00:45:09;;;;;;;;;19.00;16.60;;;;;28.04;51.70;98342.84;6237740;27;96985;-70
2022/07/01 00:48:15;;;;;;;;;21.00;18.00;;;;;28.03;51.50;98344.00;6235193;28;96994;-70
2022/07/01 00:51:19;;;;;;;;;20.00;18.00;;;;;28.07;51.56;98344.09;6236778;28;97215;-70
2022/07/01 00:54:24;;;;;;;;;19.25;17.50;;;;;28.00;51.26;98337.19;6219931;28;99555;-69
2022/07/01 00:57:31;;;;;;;;;18.40;17.20;;;;;28.06;51.46;98340.53;6233756;28;97581;-70
2022/07/01 01:00:36;;;;;;;;;20.00;18.00;;;;;28.12;51.12;98341.94;6223360;28;96355;-71
2022/07/01 01:03:41;;;;;;;;;21.40;18.00;;;;;28.07;51.38;98325.50;6219531;28;100000;-70
2022/07/01 01:06:47;;;;;;;;;19.00;18.00;;;;;28.14;51.84;98336.88;6205759;28;99062;-71
2022/07/01 01:09:51;;;;;;;;;16.40;15.40;;;;;28.10;51.47;98330.34;6220566;28;98345;-70
2022/07/01 01:12:56;;;;;;;;;20.75;19.50;;;;;28.04;51.60;98330.97;6234348;28;98360;-70
2022/07/01 01:16:00;;;;;;;;;20.25;19.25;;;;;28.01;52.25;98326.91;6235398;28;97114;-70
2022/07/01 01:19:07;;;;;;;;;20.20;17.00;;;;;28.00;52.12;98336.41;6234758;28;97534;-71
2022/07/01 01:22:15;;;;;;;;;20.00;20.00;;;;;27.93;51.72;98328.66;6236567;28;96616;-70
2022/07/01 01:25:19;;;;;;;;;19.00;17.75;;;;;27.91;51.73;98328.19;6235823;27;97388;-71
2022/07/01 01:28:22;;;;;;;;;20.80;19.00;;;;;27.92;51.80;98332.59;6235219;28;97547;-71
2022/07/01 01:31:30;;;;;;;;;22.00;20.00;;;;;27.92;51.46;98331.78;6234379;28;96942;-71
2022/07/01 01:34:34;;;;;;;;;23.00;21.60;;;;;27.94;51.39;98343.34;6235644;28;97444;-71
2022/07/01 01:37:38;;;;;;;;;21.00;19.60;;;;;27.95;51.44;98337.41;6236304;28;96743;-70
2022/07/01 01:40:44;;;;;;;;;21.40;20.40;;;;;27.71;51.84;98325.59;6249075;27;97381;-71
2022/07/01 01:43:48;;;;;;;;;21.75;19.00;;;;;27.83;52.18;98345.75;6242280;27;99152;-70
2022/07/01 01:46:53;;;;;;;;;21.00;20.00;;;;;27.80;52.06;98343.69;6262124;27;97400;-71
2022/07/01 01:49:56;;;;;;;;;23.25;21.00;;;;;27.75;52.23;98349.47;6242801;27;100711;-70
2022/07/01 01:53:01;;;;;;;;;21.25;20.00;;;;;27.73;52.49;98351.78;6262587;27;97937;-71
2022/07/01 01:56:06;;;;;;;;;22.40;21.00;;;;;27.69;52.30;98344.50;6257585;27;97505;-70
2022/07/01 01:59:09;;;;;;;;;19.00;18.40;;;;;27.70;52.19;98357.22;6243007;27;97037;-71
2022/07/01 02:02:12;;;;;;;;;21.50;20.00;;;;;27.74;51.75;98352.59;6256098;27;97553;-71
2022/07/01 02:05:16;;;;;;;;;21.00;20.00;;;;;27.77;51.71;98344.38;6243128;27;97988;-70
2022/07/01 02:08:20;;;;;;;;;21.00;20.00;;;;;27.78;51.73;98343.22;6243072;27;96645;-71
2022/07/01 02:11:24;;;;;;;;;21.00;20.00;;;;;27.67;51.68;98331.00;6225708;27;98323;-71
2022/07/01 02:14:28;;;;;;;;;22.20;21.00;;;;;27.86;51.79;98350.59;6260780;27;97455;-70
2022/07/01 02:17:32;;;;;;;;;21.00;18.00;;;;;27.84;51.54;98350.16;6260258;27;97539;-70
2022/07/01 02:20:35;;;;;;;;;20.00;19.00;;;;;27.85;51.52;98356.50;6261888;27;96947;-70
2022/07/01 02:23:40;;;;;;;;;21.00;20.25;;;;;27.79;51.75;98355.13;6241923;27;97084;-71
2022/07/01 02:26:44;;;;;;;;;21.20;19.80;;;;;27.75;51.84;98355.03;6262738;27;96643;-71
2022/07/01 02:29:47;;;;;;;;;22.20;21.20;;;;;27.68;52.30;98360.31;6266185;27;97368;-70
2022/07/01 02:32:50;;;;;;;;;23.60;20.60;;;;;27.62;52.12;98363.66;6247543;27;98028;-70
2022/07/01 02:35:54;;;;;;;;;20.50;19.00;;;;;27.33;51.80;98326.69;6265703;27;96518;-71
2022/07/01 02:38:59;;;;;;;;;18.60;18.60;;;;;27.60;51.74;98379.81;6244893;27;98371;-71
2022/07/01 02:45:24;;;;;;;;;22.00;20.00;;;;;27.51;52.36;98380.72;6266143;27;96414;-69
2022/07/01 02:48:27;;;;;;;;;19.40;18.40;;;;;27.51;52.55;98375.19;6245638;27;97508;-70
2022/07/01 02:51:31;;;;;;;;;22.00;20.50;;;;;27.49;52.41;98380.28;6247227;27;99717;-70
2022/07/01 02:54:35;;;;;;;;;20.00;19.00;;;;;27.50;52.29;98375.56;6264283;27;97471;-70
2022/07/01 02:57:40;;;;;;;;;20.00;19.00;;;;;27.51;52.36;98377.94;6264990;27;98197;-70
2022/07/01 03:00:44;;;;;;;;;23.00;21.00;;;;;27.52;52.13;98385.13;6263457;27;97711;-71
2022/07/01 03:03:48;;;;;;;;;22.00;19.00;;;;;27.51;52.37;98375.19;6213363;27;97515;-71
2022/07/01 03:06:51;;;;;;;;;19.75;19.75;;;;;27.50;52.15;98376.38;6234684;27;97056;-70
2022/07/01 03:09:56;;;;;;;;;22.00;20.40;;;;;27.50;52.38;98381.09;6264740;27;96684;-70
2022/07/01 03:13:01;;;;;;;;;20.00;19.25;;;;;27.49;52.11;98390.53;6247299;27;96804;-71
2022/07/01 03:16:05;;;;;;;;;22.80;21.20;;;;;27.42;52.28;98370.88;6264551;27;97049;-70
2022/07/01 03:19:09;;;;;;;;;23.00;21.00;;;;;27.55;52.25;98389.97;6249048;27;96593;-71
2022/07/01 03:22:12;;;;;;;;;21.00;19.00;;;;;27.56;52.07;98386.03;6221630;28;98566;-71
2022/07/01 03:25:18;;;;;;;;;21.60;18.60;;;;;27.48;52.40;98375.84;6239769;27;96901;-71
2022/07/01 03:28:21;;;;;;;;;22.00;21.00;;;;;27.58;52.14;98378.19;6245108;27;96758;-70
2022/07/01 03:31:24;;;;;;;;;22.20;20.20;;;;;27.59;52.08;98379.00;6240584;27;97736;-70
2022/07/01 03:34:28;;;;;;;;;22.00;21.00;;;;;27.66;52.21;98383.97;6263497;27;97529;-70
2022/07/01 03:37:32;;;;;;;;;21.00;19.00;;;;;27.67;52.33;98380.84;6263584;27;97421;-71
2022/07/01 03:40:36;;;;;;;;;22.20;20.20;;;;;27.70;52.46;98388.47;6245935;27;96881;-70
2022/07/01 03:43:39;;;;;;;;;20.00;19.00;;;;;27.73;51.98;98375.88;6264429;27;97133;-70
2022/07/01 03:46:43;;;;;;;;;21.25;20.00;;;;;27.83;52.10;98386.50;6242838;27;97464;-70
2022/07/01 03:49:46;;;;;;;;;20.80;19.80;;;;;27.90;51.62;98378.44;6245380;27;98075;-70
2022/07/01 03:54:29;;;;;;;;;19.80;19.00;;;;;28.00;51.18;98383.50;6245165;27;97438;-70
2022/07/01 03:56:14;;;;;;;;;21.60;20.60;;;;;28.07;51.13;98388.44;6258057;27;98056;-70
2022/07/01 03:59:18;;;;;;;;;20.00;19.00;;;;;28.06;51.01;98386.81;6245798;27;96359;-69
2022/07/01 04:02:21;;;;;;;;;19.00;18.60;;;;;28.13;50.85;98387.91;6242128;27;99391;-70
2022/07/01 04:05:24;;;;;;;;;21.40;19.40;;;;;28.18;50.56;98397.94;6263398;27;97440;-70
2022/07/01 04:08:28;;;;;;;;;21.00;20.80;;;;;28.14;50.63;98391.47;6242999;27;97850;-70
2022/07/01 04:11:33;;;;;;;;;21.00;19.00;;;;;28.21;50.68;98400.81;6263769;27;97631;-70
2022/07/01 04:14:37;;;;;;;;;21.00;19.60;;;;;28.31;50.77;98400.31;6263094;27;97490;-71
2022/07/01 04:17:41;;;;;;;;;21.00;19.00;;;;;28.40;50.57;98389.09;6259383;27;97446;-70
2022/07/01 04:22:32;;;;;;;;;21.40;21.00;;;;;28.43;50.22;98388.41;6224393;28;98834;-70
2022/07/01 04:24:08;;;;;;;;;24.60;21.60;;;;;28.55;50.56;98393.91;6261291;27;97548;-70
2022/07/01 04:27:13;;;;;;;;;21.00;20.00;;;;;28.61;49.99;98400.00;6263489;27;97953;-70
2022/07/01 04:30:16;;;;;;;;;21.50;19.50;;;;;28.67;49.88;98396.66;6243032;27;97233;-71
2022/07/01 04:33:20;;;;;;;;;22.00;20.00;;;;;28.76;49.20;98400.09;6256045;27;97284;-70
2022/07/01 04:36:23;;;;;;;;;20.00;18.75;;;;;28.85;49.61;98397.19;6259070;27;97598;-70
2022/07/01 04:39:26;;;;;;;;;21.00;19.00;;;;;28.89;49.32;98392.53;6260138;27;96777;-71
2022/07/01 04:42:31;;;;;;;;;22.00;19.40;;;;;28.90;48.86;98394.16;6223635;27;98229;-74
2022/07/01 04:45:35;;;;;;;;;20.75;19.75;;;;;28.96;48.99;98389.97;6222014;27;98977;-72
2022/07/01 04:48:38;;;;;;;;;21.00;20.00;;;;;29.03;48.64;98392.91;6255863;27;97045;-74
2022/07/01 04:51:42;;;;;;;;;21.60;21.00;;;;;29.16;48.84;98405.59;6242558;27;97221;-72
2022/07/01 04:54:45;;;;;;;;;20.80;19.80;;;;;29.32;48.25;98402.88;6260474;27;97461;-74
2022/07/01 04:57:50;;;;;;;;;25.00;21.50;;;;;29.43;48.17;98412.25;6241269;27;99043;-74
2022/07/01 05:00:54;;;;;;;;;24.00;21.60;;;;;29.47;47.09;98415.94;6241908;27;98014;-73
2022/07/01 05:03:58;;;;;;;;;21.40;19.40;;;;;29.59;47.62;98417.84;6242773;27;96364;-71
2022/07/01 05:07:01;;;;;;;;;22.00;21.00;;;;;29.66;46.78;98413.25;6260746;27;97235;-69
2022/07/01 05:10:06;;;;;;;;;22.00;21.00;;;;;29.74;46.92;98405.91;6243683;27;100183;-70
2022/07/01 05:13:11;;;;;;;;;24.00;22.00;;;;;29.91;46.66;98416.66;6258102;27;97505;-66
2022/07/01 05:16:15;;;;;;;;;19.25;18.25;;;;;30.06;46.75;98417.81;6242397;27;99535;-69
2022/07/01 05:22:42;;;;;;;;;23.00;21.40;;;;;30.27;45.46;98407.19;6211307;27;98553;-67
2022/07/01 05:25:45;;;;;;;;;23.60;21.00;;;;;30.40;45.58;98402.31;6242661;27;96524;-69
2022/07/01 05:28:50;;;;;;;;;24.25;21.50;;;;;30.45;44.91;98404.78;6260165;27;97248;-71
2022/07/01 05:31:53;;;;;;;;;20.60;20.20;;;;;30.54;45.18;98402.66;6260492;27;97388;-70
2022/07/01 05:34:57;;;;;;;;;26.00;24.00;;;;;30.53;45.04;98404.63;6258684;27;96797;-69
2022/07/01 05:38:00;;;;;;;;;22.00;21.00;;;;;30.62;45.42;98396.06;6259932;27;96712;-68
2022/07/01 05:41:03;;;;;;;;;24.00;20.00;;;;;30.54;43.97;98395.09;6257721;27;96976;-69
2022/07/01 05:44:08;;;;;;;;;19.20;18.80;;;;;30.57;43.91;98392.78;6260057;27;96540;-70
2022/07/01 05:47:11;;;;;;;;;20.25;19.00;;;;;30.64;44.27;98399.31;6260932;27;97213;-69
2022/07/01 05:50:15;;;;;;;;;21.25;21.00;;;;;30.68;44.58;98396.59;6225404;27;98380;-68
2022/07/01 05:53:19;;;;;;;;;21.00;20.00;;;;;30.86;44.87;98397.75;6241148;27;99562;-70
2022/07/01 05:56:23;;;;;;;;;23.00;21.50;;;;;30.95;43.40;98399.13;6240181;27;97847;-72
2022/07/01 05:59:27;;;;;;;;;21.00;20.40;;;;;31.08;42.79;98399.00;6224589;27;97449;-72
2022/07/01 06:02:31;;;;;;;;;22.00;20.80;;;;;31.23;43.17;98392.50;6258684;27;96697;-72
2022/07/01 06:05:34;;;;;;;;;20.20;20.00;;;;;31.38;43.30;98394.38;6260290;27;97556;-72
2022/07/01 06:08:38;;;;;;;;;20.40;20.00;;;;;31.57;43.14;98390.78;6245687;27;97124;-72
2022/07/01 06:11:41;;;;;;;;;23.50;21.25;;;;;31.60;42.30;98393.63;6240638;27;97524;-71
2022/07/01 06:14:46;;;;;;;;;20.80;19.00;;;;;31.59;42.42;98393.97;6242848;27;96964;-72
2022/07/01 06:17:49;;;;;;;;;21.40;21.00;;;;;31.64;42.41;98396.47;6260632;27;98048;-72
2022/07/01 06:20:53;;;;;;;;;19.40;18.00;;;;;31.83;41.92;98399.97;6242036;27;96702;-73
2022/07/01 06:23:57;;;;;;;;;20.40;19.00;;;;;32.02;41.09;98396.28;6226829;27;97950;-72
2022/07/01 06:27:00;;;;;;;;;20.00;19.00;;;;;32.06;40.03;98397.13;6259924;27;97555;-71
2022/07/01 06:30:05;;;;;;;;;24.50;21.00;;;;;32.15;39.38;98405.28;6258295;27;98432;-70
2022/07/01 06:33:09;;;;;;;;;18.80;17.80;;;;;32.34;39.93;98391.22;6260652;27;97448;-70
2022/07/01 06:36:13;;;;;;;;;20.25;19.00;;;;;32.45;37.96;98394.94;6269928;27;98365;-72
2022/07/01 06:39:17;;;;;;;;;20.40;19.00;;;;;32.38;36.82;98392.06;6242611;27;97984;-74
2022/07/01 06:42:21;;;;;;;;;18.00;17.00;;;;;32.32;36.50;98395.53;6259278;27;97147;-70
2022/07/01 06:45:26;;;;;;;;;17.00;16.00;;;;;32.39;36.06;98392.88;6261765;27;96798;-75
2022/07/01 06:48:29;;;;;;;;;17.00;15.00;;;;;32.48;36.85;98385.81;6261031;27;97680;-70
2022/07/01 06:51:33;;;;;;;;;19.80;18.20;;;;;32.61;36.63;98387.19;6261534;27;97388;-72
2022/07/01 06:54:37;;;;;;;;;20.75;20.00;;;;;32.83;37.78;98384.69;6242993;27;97810;-71
2022/07/01 06:57:42;;;;;;;;;23.40;21.40;;;;;33.05;37.50;98386.53;6243193;27;96665;-72
2022/07/01 07:00:46;;;;;;;;;20.40;19.00;;;;;33.27;37.10;98380.03;6225318;27;98349;-73
2022/07/01 07:03:50;;;;;;;;;17.00;17.00;;;;;33.56;37.39;98383.06;6259665;27;97342;-70
2022/07/01 07:06:53;;;;;;;;;23.00;21.40;;;;;33.82;36.93;98388.50;6253322;27;98395;-70
2022/07/01 07:09:57;;;;;;;;;18.00;17.00;;;;;34.00;36.67;98389.44;6217933;27;97045;-70
2022/07/01 07:13:01;;;;;;;;;21.00;20.00;;;;;34.13;35.20;98395.53;6221747;27;97685;-70
2022/07/01 07:16:06;;;;;;;;;22.00;20.00;;;;;34.27;34.98;98393.66;6265215;27;96522;-71
2022/07/01 07:19:10;;;;;;;;;19.00;19.00;;;;;34.39;35.05;98398.13;6245431;27;97285;-71
2022/07/01 07:22:13;;;;;;;;;21.80;20.00;;;;;34.67;35.13;98394.66;6259910;27;96740;-70
2022/07/01 07:25:16;;;;;;;;;23.00;21.00;;;;;34.84;34.47;98399.56;6227520;27;96808;-69
2022/07/01 07:28:20;;;;;;;;;20.60;19.60;;;;;34.98;34.48;98402.41;6262966;27;98089;-71
2022/07/01 07:31:24;;;;;;;;;23.60;20.60;;;;;35.18;35.30;98400.91;6262416;27;96626;-71
2022/07/01 07:34:28;;;;;;;;;21.60;20.00;;;;;35.43;34.62;98391.75;6262458;27;97054;-71
2022/07/01 07:37:32;;;;;;;;;23.75;21.75;;;;;35.72;34.50;98401.81;6246430;27;98151;-70
2022/07/01 07:40:35;;;;;;;;;23.80;21.20;;;;;35.84;33.21;98401.38;6264090;27;97460;-69
2022/07/01 07:43:39;;;;;;;;;20.00;19.60;;;;;35.81;32.51;98405.00;6262784;27;97491;-69
2022/07/01 07:46:43;;;;;;;;;23.00;20.00;;;;;35.97;34.04;98407.41;6245888;27;97420;-72
2022/07/01 07:49:47;;;;;;;;;22.60;20.00;;;;;36.20;33.37;98396.59;6263309;27;97368;-70
2022/07/01 07:52:51;;;;;;;;;20.00;19.40;;;;;36.32;31.88;98398.13;6240983;27;97243;-71
2022/07/01 07:55:54;;;;;;;;;23.40;22.00;;;;;36.51;33.15;98402.53;6261065;27;97562;-71
2022/07/01 07:58:58;;;;;;;;;20.60;20.00;;;;;36.78;32.16;98393.22;6262939;27;97458;-70
2022/07/01 08:02:03;;;;;;;;;21.40;21.00;;;;;37.07;31.75;98395.88;6241912;27;97439;-72
2022/07/01 08:05:07;;;;;;;;;22.00;21.00;;;;;37.32;31.62;98399.38;6264159;27;96285;-71
2022/07/01 08:08:11;;;;;;;;;22.00;20.00;;;;;37.58;30.98;98395.22;6245479;27;96857;-69
2022/07/01 08:11:14;;;;;;;;;20.00;18.00;;;;;37.78;30.73;98395.47;6228607;27;98417;-69
2022/07/01 08:14:18;;;;;;;;;22.80;21.00;;;;;37.98;30.35;98405.72;6245771;27;96430;-70
2022/07/01 08:17:27;;;;;;;;;20.60;19.60;;;;;38.21;29.87;98407.97;6245722;27;97103;-69
2022/07/01 08:20:31;;;;;;;;;20.75;19.75;;;;;38.43;29.32;98397.25;6262424;27;97488;-68
2022/07/01 08:23:35;;;;;;;;;22.00;20.00;;;;;38.68;29.29;98411.09;6244277;27;96522;-67
2022/07/01 08:26:38;;;;;;;;;21.00;19.00;;;;;38.82;29.23;98405.28;6255537;27;96639;-67
2022/07/01 08:29:42;;;;;;;;;21.00;19.25;;;;;38.95;29.26;98406.34;6245311;27;96577;-72
2022/07/01 08:32:46;;;;;;;;;20.20;19.80;;;;;39.17;28.81;98407.66;6244525;27;97504;-71
2022/07/01 08:35:50;;;;;;;;;22.80;21.00;;;;;39.27;28.45;98398.25;6244451;27;97253;-69
2022/07/01 08:38:55;;;;;;;;;21.00;20.00;;;;;39.38;27.93;98390.47;6261792;27;96691;-72
2022/07/01 08:41:59;;;;;;;;;20.80;20.00;;;;;39.35;27.78;98382.84;6258113;27;97592;-72
2022/07/01 08:45:03;;;;;;;;;21.00;20.00;;;;;39.50;27.35;98388.25;6227117;27;98093;-70
2022/07/01 08:48:08;;;;;;;;;20.00;20.00;;;;;39.48;26.92;98385.06;6262094;27;97947;-72
2022/07/01 08:51:11;;;;;;;;;21.80;19.80;;;;;39.52;27.08;98385.81;6257650;27;96666;-70
2022/07/01 08:54:15;;;;;;;;;22.00;20.50;;;;;39.61;27.29;98388.88;6242655;27;97109;-73
2022/07/01 08:57:22;;;;;;;;;22.00;20.00;;;;;39.54;26.71;98386.97;6257084;27;97510;-73
2022/07/01 09:00:31;;;;;;;;;21.00;19.00;;;;;39.76;27.24;98379.00;6260885;27;97440;-69
2022/07/01 09:03:35;;;;;;;;;19.00;18.00;;;;;40.03;25.54;98376.09;6226126;27;96679;-69
2022/07/01 09:06:39;;;;;;;;;21.00;18.60;;;;;40.17;25.54;98382.28;6219624;27;97163;-69
2022/07/01 09:09:42;;;;;;;;;18.50;17.00;;;;;40.39;25.45;98377.06;6219532;27;97749;-70
2022/07/01 09:12:46;;;;;;;;;19.00;18.00;;;;;40.65;25.20;98376.16;6260698;27;97403;-69
2022/07/01 09:15:49;;;;;;;;;19.00;17.00;;;;;40.92;25.16;98375.19;6260534;27;97236;-70
2022/07/01 09:19:04;;;;;;;;;18.40;18.00;;;;;41.17;24.89;98381.13;6260997;27;97476;-70
2022/07/01 09:22:07;;;;;;;;;19.40;18.40;;;;;41.43;24.58;98382.13;6259620;27;97637;-70
2022/07/01 09:25:13;;;;;;;;;18.00;16.60;;;;;41.61;23.98;98379.69;6257773;27;96678;-71
2022/07/01 09:28:19;;;;;;;;;18.00;17.00;;;;;41.84;23.85;98388.00;6242552;27;100065;-70
2022/07/01 09:31:22;;;;;;;;;18.75;17.25;;;;;42.09;23.77;98378.88;6244451;27;97028;-70
2022/07/01 09:34:27;;;;;;;;;22.00;17.50;;;;;42.30;23.56;98377.56;6243702;27;96671;-71
2022/07/01 09:37:31;;;;;;;;;16.20;15.20;;;;;42.44;22.82;98387.69;6225765;27;98642;-72
2022/07/01 09:40:54;;;;;;;;;16.75;16.50;;;;;42.61;22.29;98380.75;6244234;27;99797;-71
2022/07/01 09:44:04;;;;;;;;;16.50;16.50;;;;;42.72;22.28;98384.06;6260777;27;97527;-70
2022/07/01 09:47:08;;;;;;;;;18.00;16.60;;;;;42.91;21.90;98385.94;6258763;27;97076;-70
2022/07/01 09:50:14;;;;;;;;;15.40;15.00;;;;;43.05;21.20;98376.22;6248713;27;97648;-70
2022/07/01 09:53:17;;;;;;;;;16.00;16.00;;;;;43.15;22.10;98363.78;6262040;27;97501;-70
2022/07/01 09:56:21;;;;;;;;;16.00;15.00;;;;;43.22;21.29;98371.25;6243770;27;97579;-69
2022/07/01 09:59:24;;;;;;;;;16.60;16.00;;;;;43.45;21.64;98365.25;6262229;27;97149;-70
2022/07/01 10:02:30;;;;;;;;;17.00;15.40;;;;;43.27;22.39;98347.97;6261814;27;98024;-65
2022/07/01 10:05:48;;;;;;;;;15.00;15.00;;;;;43.23;22.00;98359.44;6260733;27;98193;-59
2022/07/01 10:09:03;;;;;;;;;14.80;14.00;;;;;43.30;21.66;98361.28;6259809;27;97473;-56
2022/07/01 10:12:34;;;;;;;;;15.20;15.00;;;;;43.45;20.09;98353.91;6259738;27;97498;-60
2022/07/01 10:15:37;;;;;;;;;15.00;15.00;;;;;43.57;20.75;98361.63;6258136;27;97208;-62
2022/07/01 10:18:41;;;;;;;;;16.00;16.00;;;;;43.64;20.51;98357.75;6258953;27;98008;-60
2022/07/01 10:21:46;;;;;;;;;19.00;17.60;;;;;43.75;20.90;98358.19;6237943;27;96809;-56
2022/07/01 10:24:49;;;;;;;;;23.00;21.75;;;;;43.76;20.55;98354.09;6254823;27;97893;-60
2022/07/01 10:28:22;;;;;;;;;20.00;19.00;;;;;43.63;20.83;98353.34;6258872;27;97441;-60
2022/07/01 10:31:37;;;;;;;;;19.00;18.00;;;;;43.61;21.00;98343.22;6257347;27;97462;-56
2022/07/01 10:34:44;;;;;;;;;21.00;20.00;;;;;43.57;21.57;98339.72;6261964;27;97191;-61
2022/07/01 10:38:03;;;;;;;;;19.80;19.80;;;;;43.54;21.56;98343.47;6261171;27;97534;-60
2022/07/01 10:41:24;;;;;;;;;20.00;19.00;;;;;43.48;21.19;98338.81;6261291;27;97496;-62
2022/07/01 10:44:29;;;;;;;;;20.00;19.00;;;;;43.46;20.76;98335.59;6261081;27;97510;-61
2022/07/01 10:47:33;;;;;;;;;20.00;20.00;;;;;43.44;20.96;98336.06;6261661;27;96927;-64
2022/07/01 10:50:39;;;;;;;;;20.40;18.60;;;;;43.42;21.03;98334.94;6245554;27;98138;-62
2022/07/01 10:53:50;;;;;;;;;18.20;17.20;;;;;43.38;20.52;98328.56;6265736;27;96376;-59
2022/07/01 10:56:57;;;;;;;;;17.00;17.00;;;;;43.38;20.36;98335.06;6266218;27;97445;-64
2022/07/01 11:00:31;;;;;;;;;18.00;18.00;;;;;43.38;20.54;98337.09;6265607;27;96490;-59
2022/07/01 11:03:36;;;;;;;;;16.75;16.00;;;;;43.42;20.49;98329.25;6265720;27;97488;-58
2022/07/01 11:06:40;;;;;;;;;18.00;17.25;;;;;43.42;20.07;98329.25;6230353;27;96826;-62
2022/07/01 11:09:45;;;;;;;;;16.00;15.00;;;;;43.49;20.00;98329.84;6263184;27;97611;-60
2022/07/01 11:12:49;;;;;;;;;15.40;15.00;;;;;43.52;20.32;98331.78;6263185;27;97655;-60
2022/07/01 11:15:53;;;;;;;;;16.00;15.25;;;;;43.55;20.35;98325.16;6264880;27;96745;-62
2022/07/01 11:18:56;;;;;;;;;17.20;16.00;;;;;43.57;20.09;98333.25;6264589;27;97563;-57
2022/07/01 11:22:00;;;;;;;;;17.40;16.00;;;;;43.58;20.50;98321.44;6263959;27;96485;-56
2022/07/01 11:25:07;;;;;;;;;14.00;14.00;;;;;43.54;19.69;98326.44;6246528;27;97441;-60
2022/07/01 11:28:12;;;;;;;;;14.00;14.00;;;;;43.50;19.82;98325.75;6265693;27;97548;-59
2022/07/01 11:31:15;;;;;;;;;15.80;14.80;;;;;43.47;19.77;98314.50;6246515;27;98583;-60
2022/07/01 11:34:19;;;;;;;;;14.60;14.00;;;;;43.47;19.94;98315.31;6265070;27;96385;-59
2022/07/01 11:40:45;;;;;;;;;17.25;14.00;;;;;43.39;19.48;98308.25;6263782;27;97076;-62
2022/07/01 11:43:51;;;;;;;;;13.00;12.00;;;;;43.30;19.63;98304.53;6264612;27;96366;-65
2022/07/01 11:46:54;;;;;;;;;14.60;14.60;;;;;43.29;19.52;98315.09;6246292;27;98813;-60
2022/07/01 11:49:59;;;;;;;;;14.00;13.25;;;;;43.17;19.08;98310.19;6264260;27;97647;-60
2022/07/01 11:53:02;;;;;;;;;12.75;12.75;;;;;43.10;19.57;98302.72;6264677;27;96870;-63
2022/07/01 11:56:08;;;;;;;;;11.80;11.80;;;;;43.15;19.34;98307.84;6246175;27;96554;-60
2022/07/01 11:59:11;;;;;;;;;13.00;12.20;;;;;43.10;19.17;98307.59;6263929;27;96447;-58
2022/07/01 12:02:17;;;;;;;;;14.00;13.25;;;;;43.01;19.02;98296.88;6263020;27;97390;-63
2022/07/01 12:05:21;;;;;;;;;14.60;13.60;;;;;42.99;19.04;98305.06;6264995;27;96297;-62
2022/07/01 12:08:25;;;;;;;;;14.00;13.00;;;;;43.02;19.64;98306.19;6264481;27;97526;-59
2022/07/01 12:11:30;;;;;;;;;14.00;13.00;;;;;43.07;19.02;98297.13;6264484;27;96875;-58
2022/07/01 12:14:41;;;;;;;;;14.00;13.00;;;;;43.12;19.25;98288.88;6264689;27;97435;-59
2022/07/01 12:17:44;;;;;;;;;12.80;12.00;;;;;43.14;19.52;98271.41;6264302;27;97468;-61
2022/07/01 12:20:51;;;;;;;;;13.25;13.00;;;;;43.29;19.06;98283.88;6264799;27;97384;-59
2022/07/01 12:24:06;;;;;;;;;14.00;13.00;;;;;43.38;19.13;98281.13;6264378;27;96508;-60
2022/07/01 12:27:11;;;;;;;;;13.33;13.00;;;;;43.46;18.71;98290.19;6264886;27;96802;-59
2022/07/01 12:30:32;;;;;;;;;12.60;11.60;;;;;43.55;18.95;98276.91;6245998;27;97416;-61
2022/07/01 12:33:38;;;;;;;;;16.50;16.00;;;;;43.65;18.74;98269.28;6264327;27;97496;-60
2022/07/01 12:36:49;;;;;;;;;14.20;12.20;;;;;43.74;18.55;98274.28;6264256;27;97493;-62
2022/07/01 12:39:54;;;;;;;;;12.00;12.00;;;;;43.80;18.54;98269.56;6263194;27;98036;-62
2022/07/01 12:42:59;;;;;;;;;14.20;13.80;;;;;43.88;18.23;98271.75;6261981;27;97428;-61
2022/07/01 12:46:03;;;;;;;;;14.00;13.75;;;;;43.99;18.44;98271.34;6243531;27;96635;-58
2022/07/01 12:49:06;;;;;;;;;14.00;14.00;;;;;43.99;18.00;98265.66;6260549;27;96815;-62
2022/07/01 12:52:24;;;;;;;;;14.00;14.00;;;;;43.91;17.94;98267.19;6258541;27;97501;-61
2022/07/01 12:55:31;;;;;;;;;15.00;14.25;;;;;43.88;17.70;98259.59;6261614;27;96906;-55
2022/07/01 12:58:36;;;;;;;;;15.50;14.00;;;;;43.84;17.50;98259.66;6259900;27;97430;-59
2022/07/01 13:01:40;;;;;;;;;15.00;14.00;;;;;43.87;17.08;98263.69;6260875;27;97882;-63
2022/07/01 13:04:44;;;;;;;;;12.40;12.40;;;;;43.90;17.50;98266.38;6260731;27;97632;-62
2022/07/01 13:07:48;;;;;;;;;13.00;13.00;;;;;43.99;17.81;98268.50;6259793;27;96613;-60
2022/07/01 13:10:51;;;;;;;;;12.00;12.00;;;;;44.03;17.08;98266.34;6259529;27;97522;-60
2022/07/01 13:13:56;;;;;;;;;13.00;12.40;;;;;44.02;17.31;98273.28;6260595;27;97512;-60
2022/07/01 13:16:59;;;;;;;;;13.00;13.00;;;;;44.05;16.88;98266.66;6261155;27;97840;-59
2022/07/01 13:20:03;;;;;;;;;12.00;12.00;;;;;44.13;17.34;98264.38;6258229;27;97562;-60
2022/07/01 13:23:06;;;;;;;;;13.00;12.50;;;;;44.22;17.58;98261.59;6243242;27;99528;-58
2022/07/01 13:26:10;;;;;;;;;13.00;12.60;;;;;44.18;17.02;98250.34;6258800;27;96760;-58
2022/07/01 13:29:14;;;;;;;;;13.00;12.00;;;;;44.27;17.79;98261.81;6260105;27;97420;-59
2022/07/01 13:32:18;;;;;;;;;12.00;12.00;;;;;44.30;17.72;98262.94;6259657;27;98070;-59
2022/07/01 13:35:23;;;;;;;;;13.00;13.00;;;;;44.32;18.02;98261.22;6259509;27;97858;-57
2022/07/01 13:38:26;;;;;;;;;13.00;13.00;;;;;44.28;17.49;98252.00;6259229;27;97202;-57
2022/07/01 13:41:30;;;;;;;;;15.00;13.00;;;;;44.24;17.09;98257.00;6259112;27;97460;-60
2022/07/01 13:44:35;;;;;;;;;13.00;13.00;;;;;44.19;16.86;98254.78;6257133;27;97455;-58
2022/07/01 13:47:38;;;;;;;;;12.40;12.00;;;;;44.13;17.17;98250.97;6257918;27;97499;-58
2022/07/01 13:50:41;;;;;;;;;15.00;15.00;;;;;44.18;17.83;98258.84;6259497;27;97997;-60
2022/07/01 13:53:45;;;;;;;;;13.00;13.00;;;;;44.12;17.99;98259.94;6258949;27;97439;-58
2022/07/01 13:56:48;;;;;;;;;14.60;13.40;;;;;44.02;17.03;98257.03;6258226;27;97182;-60
2022/07/01 13:59:53;;;;;;;;;13.00;12.00;;;;;43.98;17.57;98255.56;6259780;27;97517;-57
2022/07/01 14:02:56;;;;;;;;;15.00;14.00;;;;;43.94;17.61;98249.19;6258349;27;97238;-63
2022/07/01 14:06:00;;;;;;;;;13.40;13.00;;;;;43.94;17.66;98246.38;6257273;27;97506;-60
2022/07/01 14:09:04;;;;;;;;;16.00;15.00;;;;;43.87;18.07;98244.59;6258350;27;97477;-62
2022/07/01 14:12:08;;;;;;;;;12.25;11.50;;;;;43.86;17.82;98237.31;6260186;27;97490;-60
2022/07/01 14:15:18;;;;;;;;;14.00;14.00;;;;;43.79;17.87;98239.59;6261251;27;96895;-58
2022/07/01 14:18:21;;;;;;;;;14.00;14.00;;;;;43.63;17.64;98229.22;6261344;27;98282;-57
2022/07/01 14:21:26;;;;;;;;;15.40;14.40;;;;;43.51;17.67;98219.47;6262050;27;97181;-58